Hovedside
METAR-TAF:

METAR-TAF

Lufthavner :

Fua'amotu internasjonale lufthavn

Tongatapu, Tonga

breddegrad: 21-14S, lengdegrad: 175-09W, høyde over havet: 38 m

Gjeldene værobservasjon

Denne rapporten ble laget for 34 minutter siden, klokken 17:00 UTC
Vind 5 kt fra Sørøst
Temperatur 22°C
Luftfuktighet 88%
Trykk 1017 hPa
Sikt 10 km eller mer
Få skyer i en høyde av 1500 ft, Tårnskyer (cumulus).
Spredte skyer i en høyde av 3500 ft

METAR: NFTF 181700Z 13005KT 9999 FEW015TCU SCT035 22/20 Q1017 RMK GRASS DEW

Tid: 06:34 (17:34 UTC)

Varsel

Denne rapporten ble laget for 6 timer og 5 minutter siden, klokken 11:29 UTC
Varsel gyldig fra 18. klokken 12 UTC til 19. klokken 12 UTC
Vind 11 kt fra Sørøst
Sikt 10 km eller mer
Spredte skyer i en høyde av 1700 ft

TAF: NFTF 181129Z 1812/1912 13011KT 9999 SCT017

Værobservasjoner og værvarsel for over 4000 flyplasser (METAR- og TAF-rapporter).

Tilgjengelige stasjoner er representert av de røde og gule prikkene på kartet.

Hold musepekeren over prikken for å se navnet på stasjonen.

Klikk så for å se værobservasjoner og -varsler.

For å forandre kartet kan du klikke på den grønne knappen med svart kryss for å zoome inn, på den grønne knappen med strek for å zoome ut, eller på de grønne pilene for å se tilstøtende kart.


METAR-TAF: